Main page
METAR-TAF:

METAR-TAF

Airports :

Gorgan, Iran

Gorgan Airport

latitude: 36-49N, longitude: 054-28E, elevation: 155 m

Current weather observation

The report was made 40 minutes ago, at 03:00 UTC
Wind 4 kt from the East/Southeast
Temperature 14°C
Humidity 94%
Pressure 1023 hPa
Visibility: 8000 m
Scattered clouds at a height of 2500 ft
Overcast at a height of 8000 ft

METAR: OING 290300Z 11004KT 8000 SCT025 OVC080 14/13 Q1023

Time: 08:10 (03:40 UTC)


TAF: missing

Weather observations and forecasts of more than 4000 airports (METAR and TAF reports).

The available stations are represented by yellow and red dots on the map.

Hover mouse over dot to see the name of the station.

Then click to see weather observations and forecasts.

To change the map : click on the green buttons with a black cross to zoom in, on the green button with a dash to zoom out, or on the green arrows for adjacent maps.


METAR-TAF: